sensor_id;sensor_type;location;lat;lon;timestamp;temperature;humidity
3980;DHT22;2004;52.452;13.120;2023-04-01T00:04:04;9.60;99.90
3980;DHT22;2004;52.452;13.120;2023-04-01T00:11:55;9.60;99.90
3980;DHT22;2004;52.452;13.120;2023-04-01T00:19:46;9.50;99.90
3980;DHT22;2004;52.452;13.120;2023-04-01T00:27:37;9.50;99.90
3980;DHT22;2004;52.452;13.120;2023-04-01T00:35:27;9.60;99.90
3980;DHT22;2004;52.452;13.120;2023-04-01T00:43:20;9.60;99.90
3980;DHT22;2004;52.452;13.120;2023-04-01T00:51:27;9.60;99.90
3980;DHT22;2004;52.452;13.120;2023-04-01T00:59:23;9.60;99.90
3980;DHT22;2004;52.452;13.120;2023-04-01T01:07:42;9.60;99.90
3980;DHT22;2004;52.452;13.120;2023-04-01T01:15:47;9.60;99.90
3980;DHT22;2004;52.452;13.120;2023-04-01T01:40:03;9.60;99.90
3980;DHT22;2004;52.452;13.120;2023-04-01T01:47:55;9.60;99.90
3980;DHT22;2004;52.452;13.120;2023-04-01T01:55:47;9.60;99.90
3980;DHT22;2004;52.452;13.120;2023-04-01T02:03:39;9.60;99.90
3980;DHT22;2004;52.452;13.120;2023-04-01T02:11:34;9.60;99.90
3980;DHT22;2004;52.452;13.120;2023-04-01T02:19:46;9.60;99.90
3980;DHT22;2004;52.452;13.120;2023-04-01T02:27:38;9.60;99.90
3980;DHT22;2004;52.452;13.120;2023-04-01T02:35:29;9.50;99.90
3980;DHT22;2004;52.452;13.120;2023-04-01T02:43:20;9.50;99.90
3980;DHT22;2004;52.452;13.120;2023-04-01T02:51:11;9.50;99.90
3980;DHT22;2004;52.452;13.120;2023-04-01T02:59:02;9.50;99.90
3980;DHT22;2004;52.452;13.120;2023-04-01T03:06:53;9.50;99.90
3980;DHT22;2004;52.452;13.120;2023-04-01T03:14:43;9.50;99.90
3980;DHT22;2004;52.452;13.120;2023-04-01T03:22:35;9.50;99.90
3980;DHT22;2004;52.452;13.120;2023-04-01T03:30:26;9.50;99.90
3980;DHT22;2004;52.452;13.120;2023-04-01T03:38:16;9.50;99.90
3980;DHT22;2004;52.452;13.120;2023-04-01T03:46:07;9.50;99.90
3980;DHT22;2004;52.452;13.120;2023-04-01T03:53:58;9.50;99.90
3980;DHT22;2004;52.452;13.120;2023-04-01T04:01:48;9.50;99.90
3980;DHT22;2004;52.452;13.120;2023-04-01T04:09:39;9.50;99.90
3980;DHT22;2004;52.452;13.120;2023-04-01T04:17:30;9.50;99.90
3980;DHT22;2004;52.452;13.120;2023-04-01T04:25:21;9.50;99.90
3980;DHT22;2004;52.452;13.120;2023-04-01T04:33:11;9.50;99.90
3980;DHT22;2004;52.452;13.120;2023-04-01T04:41:02;9.50;99.90
3980;DHT22;2004;52.452;13.120;2023-04-01T04:48:52;9.50;99.90
3980;DHT22;2004;52.452;13.120;2023-04-01T04:56:43;9.50;99.90
3980;DHT22;2004;52.452;13.120;2023-04-01T05:04:35;9.50;99.90
3980;DHT22;2004;52.452;13.120;2023-04-01T05:12:26;9.50;99.90
3980;DHT22;2004;52.452;13.120;2023-04-01T05:20:17;9.50;99.90
3980;DHT22;2004;52.452;13.120;2023-04-01T05:28:07;9.50;99.90
3980;DHT22;2004;52.452;13.120;2023-04-01T05:36:12;9.50;99.90
3980;DHT22;2004;52.452;13.120;2023-04-01T05:44:04;9.60;99.90
3980;DHT22;2004;52.452;13.120;2023-04-01T05:51:55;9.60;99.90
3980;DHT22;2004;52.452;13.120;2023-04-01T05:59:45;9.70;99.90
3980;DHT22;2004;52.452;13.120;2023-04-01T06:07:36;9.90;99.90
3980;DHT22;2004;52.452;13.120;2023-04-01T06:15:36;10.00;99.90
3980;DHT22;2004;52.452;13.120;2023-04-01T06:56:29;10.30;99.90
3980;DHT22;2004;52.452;13.120;2023-04-01T07:04:30;10.30;99.90
3980;DHT22;2004;52.452;13.120;2023-04-01T07:20:32;10.30;99.90
3980;DHT22;2004;52.452;13.120;2023-04-01T07:28:23;10.40;99.90
3980;DHT22;2004;52.452;13.120;2023-04-01T07:36:45;10.40;99.90
3980;DHT22;2004;52.452;13.120;2023-04-01T07:44:45;10.40;99.90
3980;DHT22;2004;52.452;13.120;2023-04-01T07:53:03;10.40;99.90
3980;DHT22;2004;52.452;13.120;2023-04-01T08:01:14;10.60;99.90
3980;DHT22;2004;52.452;13.120;2023-04-01T08:25:25;10.80;99.90
3980;DHT22;2004;52.452;13.120;2023-04-01T08:33:28;11.00;99.90
3980;DHT22;2004;52.452;13.120;2023-04-01T08:50:12;11.20;99.90
3980;DHT22;2004;52.452;13.120;2023-04-01T08:58:37;11.10;99.90
3980;DHT22;2004;52.452;13.120;2023-04-01T09:07:15;11.20;99.90
3980;DHT22;2004;52.452;13.120;2023-04-01T09:23:26;11.50;99.90
3980;DHT22;2004;52.452;13.120;2023-04-01T09:48:00;11.20;99.90
3980;DHT22;2004;52.452;13.120;2023-04-01T10:20:46;10.30;99.90
3980;DHT22;2004;52.452;13.120;2023-04-01T10:29:00;10.10;99.90
3980;DHT22;2004;52.452;13.120;2023-04-01T10:37:08;10.00;99.90
3980;DHT22;2004;52.452;13.120;2023-04-01T10:45:38;10.10;99.90
3980;DHT22;2004;52.452;13.120;2023-04-01T10:53:46;10.20;99.90
3980;DHT22;2004;52.452;13.120;2023-04-01T11:10:33;9.90;99.90
3980;DHT22;2004;52.452;13.120;2023-04-01T11:19:08;9.80;99.90
3980;DHT22;2004;52.452;13.120;2023-04-01T11:35:52;9.60;99.90
3980;DHT22;2004;52.452;13.120;2023-04-01T11:44:09;9.50;99.90
3980;DHT22;2004;52.452;13.120;2023-04-01T11:52:11;9.50;99.90
3980;DHT22;2004;52.452;13.120;2023-04-01T12:00:25;9.50;99.90
3980;DHT22;2004;52.452;13.120;2023-04-01T12:41:38;9.10;99.90
3980;DHT22;2004;52.452;13.120;2023-04-01T12:49:52;8.90;99.90
3980;DHT22;2004;52.452;13.120;2023-04-01T12:57:59;8.90;99.90
3980;DHT22;2004;52.452;13.120;2023-04-01T13:30:28;8.50;99.90
3980;DHT22;2004;52.452;13.120;2023-04-01T13:47:10;8.40;99.90
3980;DHT22;2004;52.452;13.120;2023-04-01T13:55:45;8.30;99.90
3980;DHT22;2004;52.452;13.120;2023-04-01T14:04:03;8.20;99.90
3980;DHT22;2004;52.452;13.120;2023-04-01T14:12:30;8.10;99.90
3980;DHT22;2004;52.452;13.120;2023-04-01T14:20:52;8.00;99.90
3980;DHT22;2004;52.452;13.120;2023-04-01T14:28:57;8.00;99.90
3980;DHT22;2004;52.452;13.120;2023-04-01T14:37:08;7.90;99.90
3980;DHT22;2004;52.452;13.120;2023-04-01T14:54:18;7.80;99.90
3980;DHT22;2004;52.452;13.120;2023-04-01T15:26:36;7.50;99.90
3980;DHT22;2004;52.452;13.120;2023-04-01T15:42:31;7.40;99.90
3980;DHT22;2004;52.452;13.120;2023-04-01T16:06:40;7.20;99.90
3980;DHT22;2004;52.452;13.120;2023-04-01T16:23:39;7.00;99.90
3980;DHT22;2004;52.452;13.120;2023-04-01T16:31:57;6.90;99.90
3980;DHT22;2004;52.452;13.120;2023-04-01T16:39:53;6.90;99.90
3980;DHT22;2004;52.452;13.120;2023-04-01T16:47:56;6.90;99.90
3980;DHT22;2004;52.452;13.120;2023-04-01T16:55:54;6.80;99.90
3980;DHT22;2004;52.452;13.120;2023-04-01T17:04:00;6.70;99.90
3980;DHT22;2004;52.452;13.120;2023-04-01T17:12:06;6.70;99.90
3980;DHT22;2004;52.452;13.120;2023-04-01T17:20:14;6.50;99.90
3980;DHT22;2004;52.452;13.120;2023-04-01T17:28:19;6.40;99.90
3980;DHT22;2004;52.452;13.120;2023-04-01T17:53:28;6.00;99.90
3980;DHT22;2004;52.452;13.120;2023-04-01T18:10:04;5.80;99.90
3980;DHT22;2004;52.452;13.120;2023-04-01T18:26:05;5.70;99.90
3980;DHT22;2004;52.452;13.120;2023-04-01T18:34:39;5.50;99.90
3980;DHT22;2004;52.452;13.120;2023-04-01T18:43:02;5.50;99.90
3980;DHT22;2004;52.452;13.120;2023-04-01T19:07:56;5.30;99.90
3980;DHT22;2004;52.452;13.120;2023-04-01T19:41:14;5.10;99.90
3980;DHT22;2004;52.452;13.120;2023-04-01T19:57:50;5.00;99.90
3980;DHT22;2004;52.452;13.120;2023-04-01T20:31:11;4.70;99.90
3980;DHT22;2004;52.452;13.120;2023-04-01T20:48:26;4.60;99.90
3980;DHT22;2004;52.452;13.120;2023-04-01T21:37:22;4.20;99.90
3980;DHT22;2004;52.452;13.120;2023-04-01T21:54:43;4.00;99.90
3980;DHT22;2004;52.452;13.120;2023-04-01T22:10:49;3.90;99.90
3980;DHT22;2004;52.452;13.120;2023-04-01T22:19:19;3.90;99.90
3980;DHT22;2004;52.452;13.120;2023-04-01T22:27:46;3.80;99.90
3980;DHT22;2004;52.452;13.120;2023-04-01T22:43:42;3.70;99.90
3980;DHT22;2004;52.452;13.120;2023-04-01T22:51:54;3.80;99.90
3980;DHT22;2004;52.452;13.120;2023-04-01T23:15:13;3.70;99.90
3980;DHT22;2004;52.452;13.120;2023-04-01T23:23:20;3.70;99.90
3980;DHT22;2004;52.452;13.120;2023-04-01T23:31:35;3.70;99.90
3980;DHT22;2004;52.452;13.120;2023-04-01T23:39:38;3.80;99.90
3980;DHT22;2004;52.452;13.120;2023-04-01T23:47:36;3.70;99.90
3980;DHT22;2004;52.452;13.120;2023-04-01T23:55:31;3.70;99.90
